createdAt,value
2019-04-06T00:00:21.464Z,22.60
2019-04-06T00:02:49.200Z,24.23
2019-04-06T00:05:16.858Z,24.27
2019-04-06T00:07:44.651Z,22.70
2019-04-06T00:10:12.770Z,23.77
2019-04-06T00:12:40.863Z,24.27
2019-04-06T00:15:09.114Z,23.20
2019-04-06T00:17:36.821Z,23.27
2019-04-06T00:20:06.615Z,23.20
2019-04-06T00:22:34.380Z,23.43
2019-04-06T00:25:02.028Z,23.37
2019-04-06T00:27:30.075Z,23.47
2019-04-06T00:29:57.806Z,23.63
2019-04-06T00:32:29.854Z,24.87
2019-04-06T00:34:57.594Z,24.00
2019-04-06T00:37:25.335Z,24.57
2019-04-06T00:39:53.450Z,24.33
2019-04-06T00:42:21.599Z,24.47
2019-04-06T00:44:49.796Z,23.50
2019-04-06T00:47:17.506Z,25.10
2019-04-06T00:49:45.738Z,25.70
2019-04-06T00:52:13.481Z,24.63
2019-04-06T00:54:41.102Z,25.10
2019-04-06T00:57:09.207Z,25.23
2019-04-06T00:59:37.294Z,24.63
2019-04-06T01:02:06.778Z,32.08
2019-04-06T01:04:34.444Z,27.10
2019-04-06T01:07:02.895Z,27.93
2019-04-06T01:09:30.926Z,26.60
2019-04-06T01:11:59.037Z,26.00
2019-04-06T01:14:26.817Z,26.33
2019-04-06T01:16:54.558Z,26.73
2019-04-06T01:19:22.334Z,25.53
2019-04-06T01:21:49.999Z,26.70
2019-04-06T01:24:17.684Z,27.97
2019-04-06T01:26:45.385Z,25.40
2019-04-06T01:29:13.090Z,25.77
2019-04-06T01:31:41.141Z,24.73
2019-04-06T01:34:09.239Z,24.80
2019-04-06T01:36:37.307Z,25.30
2019-04-06T01:39:06.158Z,24.23
2019-04-06T01:41:33.928Z,23.80
2019-04-06T01:44:01.751Z,25.43
2019-04-06T01:46:29.413Z,24.47
2019-04-06T01:48:57.102Z,25.90
2019-04-06T01:51:24.854Z,24.67
2019-04-06T01:53:52.955Z,25.37
2019-04-06T01:56:20.676Z,25.83
2019-04-06T01:58:48.790Z,25.50
2019-04-06T02:01:24.381Z,24.20
2019-04-06T02:03:52.639Z,24.97
2019-04-06T02:06:20.758Z,23.80
2019-04-06T02:08:48.812Z,24.20
2019-04-06T02:11:16.923Z,24.57
2019-04-06T02:13:44.634Z,25.57
2019-04-06T02:16:12.451Z,24.93
2019-04-06T02:18:40.109Z,26.20
2019-04-06T02:21:07.888Z,24.73
2019-04-06T02:23:35.651Z,24.37
2019-04-06T02:26:03.758Z,24.93
2019-04-06T02:28:31.919Z,24.43
2019-04-06T02:31:10.530Z,25.13
2019-04-06T02:33:55.042Z,24.97
2019-04-06T02:36:24.342Z,24.30
2019-04-06T02:38:59.965Z,25.13
2019-04-06T02:41:45.714Z,25.37
2019-04-06T02:44:13.386Z,24.87
2019-04-06T02:46:41.060Z,24.83
2019-04-06T02:49:09.122Z,25.93
2019-04-06T02:51:36.798Z,25.37
2019-04-06T02:54:05.840Z,24.67
2019-04-06T02:56:45.473Z,25.40
2019-04-06T02:59:03.692Z,24.87
2019-04-06T03:01:31.423Z,26.27
2019-04-06T03:04:00.375Z,25.70
2019-04-06T03:06:28.234Z,24.73
2019-04-06T03:08:55.909Z,24.43
2019-04-06T03:11:24.176Z,26.27
2019-04-06T03:13:51.845Z,28.13
2019-04-06T03:16:19.887Z,27.77
2019-04-06T03:18:47.622Z,25.40
2019-04-06T03:21:15.585Z,24.33
2019-04-06T03:23:50.461Z,25.90
2019-04-06T03:26:12.815Z,23.53
2019-04-06T03:28:40.515Z,24.67
2019-04-06T03:31:09.449Z,25.30
2019-04-06T03:33:37.642Z,23.57
2019-04-06T03:36:06.035Z,24.07
2019-04-06T03:38:33.783Z,25.63
2019-04-06T03:41:01.542Z,34.73
2019-04-06T03:43:29.297Z,30.80
2019-04-06T03:45:57.079Z,26.37
2019-04-06T03:48:24.839Z,25.13
2019-04-06T03:50:52.920Z,24.30
2019-04-06T03:53:20.955Z,24.60
2019-04-06T03:55:48.707Z,26.40
2019-04-06T03:58:16.376Z,23.30
2019-04-06T04:00:44.665Z,23.73
2019-04-06T04:03:12.407Z,23.73
2019-04-06T04:05:41.081Z,22.90
2019-04-06T04:08:09.207Z,23.97
2019-04-06T04:10:37.917Z,23.63
2019-04-06T04:13:06.588Z,23.10
2019-04-06T04:15:34.607Z,23.70
2019-04-06T04:18:02.673Z,23.40
2019-04-06T04:20:30.770Z,23.57
2019-04-06T04:22:58.712Z,23.37
2019-04-06T04:25:26.628Z,22.33
2019-04-06T04:27:54.366Z,22.97
2019-04-06T04:30:32.204Z,24.90
2019-04-06T04:32:51.438Z,24.27
2019-04-06T04:35:19.210Z,20.77
2019-04-06T04:37:47.399Z,20.63
2019-04-06T04:40:15.610Z,22.83
2019-04-06T04:42:43.518Z,20.90
2019-04-06T04:45:11.918Z,22.37
2019-04-06T04:47:39.636Z,21.40
2019-04-06T04:50:07.547Z,22.53
2019-04-06T04:52:35.404Z,21.67
2019-04-06T04:55:03.583Z,22.20
2019-04-06T04:57:40.123Z,22.27
2019-04-06T05:00:01.115Z,21.80
2019-04-06T05:02:29.307Z,20.57
2019-04-06T05:04:56.997Z,22.37
2019-04-06T05:07:24.715Z,21.83
2019-04-06T05:09:52.455Z,22.57
2019-04-06T05:12:20.627Z,22.83
2019-04-06T05:14:55.989Z,23.83
2019-04-06T05:17:24.239Z,25.27
2019-04-06T05:19:51.905Z,25.77
2019-04-06T05:22:19.678Z,25.03
2019-04-06T05:24:47.737Z,24.60
2019-04-06T05:27:16.093Z,21.77
2019-04-06T05:29:43.831Z,22.93
2019-04-06T05:32:11.910Z,23.93
2019-04-06T05:34:40.120Z,22.40
2019-04-06T05:37:07.786Z,22.13
2019-04-06T05:39:35.610Z,21.80
2019-04-06T05:42:03.534Z,22.77
2019-04-06T05:44:31.603Z,21.93
2019-04-06T05:46:59.317Z,23.00
2019-04-06T05:49:27.071Z,23.43
2019-04-06T05:51:55.227Z,23.83
2019-04-06T05:54:23.405Z,23.53
2019-04-06T05:56:51.610Z,23.30
2019-04-06T05:59:19.574Z,24.10
2019-04-06T06:01:49.008Z,25.83
2019-04-06T06:04:17.410Z,25.73
2019-04-06T06:06:45.070Z,24.00
2019-04-06T06:09:12.777Z,23.20
2019-04-06T06:11:40.658Z,22.63
2019-04-06T06:14:08.783Z,24.27
2019-04-06T06:16:36.896Z,34.40
2019-04-06T06:19:05.109Z,28.77
2019-04-06T06:21:33.312Z,23.97
2019-04-06T06:24:01.162Z,23.80
2019-04-06T06:26:29.209Z,24.33
2019-04-06T06:28:57.049Z,22.97
2019-04-06T06:31:25.246Z,24.87
2019-04-06T06:33:53.237Z,25.43
2019-04-06T06:36:21.420Z,20.40
2019-04-06T06:38:49.245Z,22.07
2019-04-06T06:41:17.173Z,20.57
2019-04-06T06:43:45.544Z,21.07
2019-04-06T06:46:13.960Z,26.00
2019-04-06T06:48:43.062Z,19.87
2019-04-06T06:51:11.161Z,23.23
2019-04-06T06:53:38.993Z,20.27
2019-04-06T06:56:07.185Z,19.80
2019-04-06T06:58:34.850Z,19.50
2019-04-06T07:01:03.294Z,20.17
2019-04-06T07:03:31.886Z,21.90
2019-04-06T07:06:00.074Z,21.03
2019-04-06T07:08:27.793Z,19.20
2019-04-06T07:10:57.295Z,20.33
2019-04-06T07:13:24.953Z,19.00
2019-04-06T07:15:52.667Z,17.70
2019-04-06T07:18:20.392Z,19.33
2019-04-06T07:20:48.109Z,20.80
2019-04-06T07:23:15.806Z,20.73
2019-04-06T07:25:43.955Z,18.50
2019-04-06T07:28:12.174Z,18.17
2019-04-06T07:30:40.166Z,19.67
2019-04-06T07:33:07.920Z,20.30
2019-04-06T07:35:35.997Z,20.37
2019-04-06T07:38:03.714Z,21.43
2019-04-06T07:40:31.862Z,21.67
2019-04-06T07:42:59.578Z,23.20
2019-04-06T07:45:27.619Z,25.83
2019-04-06T07:47:55.344Z,25.13
2019-04-06T07:50:23.427Z,27.67
2019-04-06T07:52:51.778Z,22.13
2019-04-06T07:55:19.559Z,22.97
2019-04-06T07:57:47.796Z,31.03
2019-04-06T08:00:15.701Z,24.60
2019-04-06T08:02:44.012Z,23.50
2019-04-06T08:05:12.286Z,32.93
2019-04-06T08:07:40.641Z,24.77
2019-04-06T08:10:08.706Z,21.67
2019-04-06T08:12:36.848Z,23.63
2019-04-06T08:15:07.540Z,21.67
2019-04-06T08:17:35.480Z,23.97
2019-04-06T08:20:05.062Z,23.00
2019-04-06T08:22:32.832Z,23.83
2019-04-06T08:25:00.985Z,24.33
2019-04-06T08:27:29.113Z,22.03
2019-04-06T08:29:56.835Z,22.37
2019-04-06T08:32:24.906Z,22.87
2019-04-06T08:34:52.928Z,21.87
2019-04-06T08:37:21.039Z,23.73
2019-04-06T08:39:48.794Z,23.67
2019-04-06T08:42:16.574Z,23.27
2019-04-06T08:44:44.797Z,23.00
2019-04-06T08:47:12.809Z,21.80
2019-04-06T08:49:40.537Z,20.87
2019-04-06T08:52:08.667Z,21.43
2019-04-06T08:54:36.739Z,21.07
2019-04-06T08:57:04.458Z,19.57
2019-04-06T08:59:32.641Z,19.10
2019-04-06T09:02:00.961Z,19.13
2019-04-06T09:04:28.801Z,20.93
2019-04-06T09:06:56.514Z,20.63
2019-04-06T09:09:24.271Z,21.47
2019-04-06T09:11:51.966Z,19.47
2019-04-06T09:14:19.827Z,19.30
2019-04-06T09:16:47.533Z,19.27
2019-04-06T09:19:15.522Z,22.37
2019-04-06T09:21:43.398Z,19.53
2019-04-06T09:24:11.102Z,20.30
2019-04-06T09:26:39.036Z,20.40
2019-04-06T09:29:06.754Z,18.90
2019-04-06T09:31:34.832Z,20.97
2019-04-06T09:34:02.530Z,23.33
2019-04-06T09:36:30.635Z,22.17
2019-04-06T09:38:58.398Z,22.37
2019-04-06T09:41:26.599Z,23.77
2019-04-06T09:43:54.850Z,23.27
2019-04-06T09:46:36.450Z,17.30
2019-04-06T09:49:05.973Z,17.47
2019-04-06T09:51:47.945Z,17.57
2019-04-06T09:54:29.523Z,16.77
2019-04-06T09:57:07.896Z,17.60
2019-04-06T09:59:37.687Z,15.93
2019-04-06T10:02:23.718Z,16.17
2019-04-06T10:05:08.461Z,16.47
2019-04-06T10:07:37.943Z,15.30
2019-04-06T10:10:08.255Z,16.57
2019-04-06T10:12:40.213Z,16.43
2019-04-06T10:15:10.132Z,15.67
2019-04-06T10:17:56.266Z,16.07
2019-04-06T10:20:44.567Z,15.40
2019-04-06T10:23:17.176Z,15.73
2019-04-06T10:25:55.678Z,18.00
2019-04-06T10:28:41.219Z,18.70
2019-04-06T10:31:26.691Z,18.23
2019-04-06T10:34:10.845Z,17.50
2019-04-06T10:36:40.474Z,18.93
2019-04-06T10:39:25.136Z,18.97
2019-04-06T10:42:00.576Z,17.80
2019-04-06T10:44:50.731Z,19.73
2019-04-06T10:47:35.589Z,20.10
2019-04-06T10:50:05.815Z,19.13
2019-04-06T10:52:44.491Z,18.87
2019-04-06T10:55:14.373Z,18.97
2019-04-06T10:57:55.955Z,20.10
2019-04-06T11:00:37.450Z,19.33
2019-04-06T11:03:25.566Z,20.10
2019-04-06T11:05:58.038Z,18.97
2019-04-06T11:08:43.880Z,17.23
2019-04-06T11:11:20.659Z,18.03
2019-04-06T11:14:06.785Z,21.83
2019-04-06T11:16:52.786Z,18.80
2019-04-06T11:19:31.405Z,17.30
2019-04-06T11:22:10.311Z,17.00
2019-04-06T11:24:56.703Z,18.33
2019-04-06T11:27:44.355Z,17.23
2019-04-06T11:30:15.242Z,18.30
2019-04-06T11:33:01.499Z,19.03
2019-04-06T11:35:49.017Z,19.50
2019-04-06T11:38:24.911Z,21.20
2019-04-06T11:40:54.519Z,21.77
2019-04-06T11:43:23.782Z,18.67
2019-04-06T11:45:56.451Z,22.70
2019-04-06T11:48:31.737Z,21.77
2019-04-06T11:51:13.513Z,22.73
2019-04-06T11:53:57.935Z,20.47
2019-04-06T11:56:30.409Z,19.70
2019-04-06T11:59:12.209Z,21.20
2019-04-06T12:01:56.806Z,19.77
2019-04-06T12:04:29.178Z,20.83
2019-04-06T12:07:02.047Z,20.40
2019-04-06T12:09:34.259Z,19.97
2019-04-06T12:12:18.945Z,19.57
2019-04-06T12:14:54.640Z,21.97
2019-04-06T12:17:30.170Z,22.00
2019-04-06T12:20:05.937Z,22.73
2019-04-06T12:22:35.903Z,21.47
2019-04-06T12:25:09.292Z,20.60
2019-04-06T12:27:53.469Z,20.70
2019-04-06T12:30:38.656Z,20.47
2019-04-06T12:33:08.593Z,20.53
2019-04-06T12:35:38.418Z,21.37
2019-04-06T12:38:14.118Z,20.50
2019-04-06T12:40:43.834Z,20.00
2019-04-06T12:43:16.221Z,20.37
2019-04-06T12:46:00.859Z,21.17
2019-04-06T12:48:48.535Z,20.60
2019-04-06T12:51:34.106Z,20.70
2019-04-06T12:54:03.455Z,20.70
2019-04-06T12:56:32.702Z,22.40
2019-04-06T12:59:05.049Z,21.37
2019-04-06T13:01:35.160Z,22.83
2019-04-06T13:04:04.761Z,23.53
2019-04-06T13:06:37.257Z,22.83
2019-04-06T13:09:14.114Z,22.60
2019-04-06T13:11:43.444Z,23.07
2019-04-06T13:14:12.779Z,24.80
2019-04-06T13:16:55.176Z,24.47
2019-04-06T13:19:25.201Z,23.47
2019-04-06T13:22:11.601Z,25.57
2019-04-06T13:24:47.085Z,27.07
2019-04-06T13:27:16.313Z,26.13
2019-04-06T13:30:04.273Z,26.67
2019-04-06T13:32:40.201Z,26.37
2019-04-06T13:35:15.680Z,23.60
2019-04-06T13:37:44.913Z,24.53
2019-04-06T13:40:30.879Z,25.07
2019-04-06T13:43:12.390Z,26.00
2019-04-06T13:45:53.870Z,28.10
2019-04-06T13:48:26.620Z,27.23
2019-04-06T13:50:58.791Z,25.13
2019-04-06T13:53:28.447Z,26.93
2019-04-06T13:55:57.940Z,26.53
2019-04-06T13:58:27.215Z,26.77
2019-04-06T14:01:13.308Z,26.03
2019-04-06T14:03:33.740Z,26.53
2019-04-06T14:06:19.538Z,26.90
2019-04-06T14:09:05.240Z,27.57
2019-04-06T14:11:34.708Z,28.63
2019-04-06T14:14:07.194Z,28.30
2019-04-06T14:16:42.399Z,29.10
2019-04-06T14:19:11.658Z,28.27
2019-04-06T14:21:44.120Z,29.03
2019-04-06T14:24:26.366Z,30.13
2019-04-06T14:27:11.970Z,30.37
2019-04-06T14:29:41.719Z,32.00
2019-04-06T14:32:16.735Z,33.70
2019-04-06T14:35:02.714Z,33.80
2019-04-06T14:37:38.131Z,33.87
2019-04-06T14:40:20.378Z,32.70
2019-04-06T14:42:59.121Z,32.20
2019-04-06T14:45:40.782Z,29.80
2019-04-06T14:48:22.284Z,27.27
2019-04-06T14:51:03.949Z,28.87
2019-04-06T14:53:39.582Z,22.90
2019-04-06T14:56:11.673Z,21.63
2019-04-06T14:58:44.583Z,23.37
2019-04-06T15:01:14.344Z,21.23
2019-04-06T15:03:59.101Z,23.00
2019-04-06T15:06:34.531Z,18.23
2019-04-06T15:09:15.575Z,10.47
2019-04-06T15:11:45.372Z,17.03
2019-04-06T15:14:30.558Z,37.20
2019-04-06T15:17:09.463Z,86.60
2019-04-06T15:19:40.086Z,22.80
2019-04-06T15:22:09.713Z,14.53
2019-04-06T15:24:54.334Z,9.13
2019-04-06T15:27:40.147Z,8.40
2019-04-06T15:30:29.110Z,9.00
2019-04-06T15:33:01.302Z,8.93
2019-04-06T15:35:34.033Z,10.33
2019-04-06T15:38:03.779Z,9.80
2019-04-06T15:40:47.831Z,9.50
2019-04-06T15:43:26.273Z,72.60
2019-04-06T15:46:02.174Z,137.57
2019-04-06T15:48:47.819Z,224.40
2019-04-06T15:51:20.023Z,36.07
2019-04-06T15:53:52.014Z,134.13
2019-04-06T15:56:21.619Z,76.07
2019-04-06T15:58:59.649Z,104.17
2019-04-06T16:01:41.916Z,77.07
2019-04-06T16:04:20.662Z,13.10
2019-04-06T16:07:05.026Z,23.57
2019-04-06T16:09:50.655Z,17.50
2019-04-06T16:12:19.989Z,19.33
2019-04-06T16:14:49.630Z,13.40
2019-04-06T16:17:19.041Z,16.63
2019-04-06T16:19:48.381Z,14.80
2019-04-06T16:22:21.170Z,11.83
2019-04-06T16:24:51.205Z,14.87
2019-04-06T16:27:33.253Z,17.83
2019-04-06T16:30:08.520Z,9.03
2019-04-06T16:32:53.387Z,10.27
2019-04-06T16:35:25.892Z,16.20
2019-04-06T16:37:55.652Z,13.27
2019-04-06T16:40:36.921Z,11.37
2019-04-06T16:43:18.671Z,10.87
2019-04-06T16:45:53.896Z,15.33
2019-04-06T16:48:23.491Z,32.50
2019-04-06T16:51:02.959Z,73.03
2019-04-06T16:53:41.480Z,42.83
2019-04-06T16:56:11.009Z,23.33
2019-04-06T16:58:52.565Z,22.20
2019-04-06T17:01:28.688Z,20.63
2019-04-06T17:03:57.971Z,21.30
2019-04-06T17:06:43.924Z,48.90
2019-04-06T17:09:13.231Z,53.03
2019-04-06T17:11:57.482Z,64.77
2019-04-06T17:14:39.366Z,38.43
2019-04-06T17:17:16.341Z,37.60
2019-04-06T17:19:48.664Z,31.83
2019-04-06T17:22:33.596Z,35.37
2019-04-06T17:25:06.290Z,58.67
2019-04-06T17:27:36.122Z,35.23
2019-04-06T17:30:21.668Z,23.87
2019-04-06T17:32:54.154Z,17.60
2019-04-06T17:35:29.816Z,19.13
2019-04-06T17:37:59.174Z,17.83
2019-04-06T17:40:34.631Z,23.13
2019-04-06T17:43:03.940Z,25.23
2019-04-06T17:45:44.993Z,25.37
2019-04-06T17:48:14.683Z,21.63
2019-04-06T17:50:44.057Z,20.37
2019-04-06T17:53:16.139Z,21.77
2019-04-06T17:56:01.165Z,22.47
2019-04-06T17:58:46.750Z,33.73
2019-04-06T18:01:27.758Z,34.30
2019-04-06T18:04:06.365Z,32.23
2019-04-06T18:06:39.365Z,29.43
2019-04-06T18:09:09.815Z,28.17
2019-04-06T18:11:42.488Z,30.10
2019-04-06T18:14:10.354Z,30.57
2019-04-06T18:16:38.559Z,29.43
2019-04-06T18:19:06.814Z,29.30
2019-04-06T18:21:34.607Z,27.67
2019-04-06T18:24:02.267Z,24.80
2019-04-06T18:26:30.410Z,24.63
2019-04-06T18:28:58.574Z,22.00
2019-04-06T18:31:31.321Z,23.90
2019-04-06T18:33:59.371Z,25.30
2019-04-06T18:36:29.099Z,21.23
2019-04-06T18:44:25.638Z,21.70
2019-04-06T18:46:53.339Z,22.67
2019-04-06T18:49:21.051Z,21.53
2019-04-06T18:51:49.168Z,21.77
2019-04-06T18:54:16.892Z,21.63
2019-04-06T18:56:44.761Z,22.73
2019-04-06T18:59:12.949Z,23.97
2019-04-06T19:01:41.416Z,26.03
2019-04-06T19:04:10.389Z,24.83
2019-04-06T19:06:38.539Z,26.63
2019-04-06T19:09:14.776Z,28.23
2019-04-06T19:11:38.105Z,28.10
2019-04-06T19:14:05.896Z,28.67
2019-04-06T19:16:33.561Z,30.37
2019-04-06T19:19:01.634Z,27.37
2019-04-06T19:21:30.797Z,28.80
2019-04-06T19:23:58.790Z,28.90
2019-04-06T19:26:26.539Z,30.87
2019-04-06T19:28:55.271Z,30.53
2019-04-06T19:31:23.044Z,28.43
2019-04-06T19:33:51.190Z,28.37
2019-04-06T19:36:19.180Z,29.07
2019-04-06T19:38:47.393Z,28.00
2019-04-06T19:41:15.692Z,29.47
2019-04-06T19:43:43.434Z,29.83
2019-04-06T19:46:11.222Z,30.87
2019-04-06T19:48:40.560Z,32.83
2019-04-06T19:51:08.711Z,34.20
2019-04-06T19:53:36.397Z,35.03
2019-04-06T19:56:04.758Z,39.40
2019-04-06T19:58:32.796Z,35.27
2019-04-06T20:01:01.423Z,35.13
2019-04-06T20:03:35.965Z,33.23
2019-04-06T20:05:59.399Z,34.03
2019-04-06T20:08:27.207Z,37.40
2019-04-06T20:10:55.304Z,39.70
2019-04-06T20:13:23.248Z,36.70
2019-04-06T20:15:50.916Z,39.23
2019-04-06T20:18:19.186Z,41.83
2019-04-06T20:20:47.813Z,40.70
2019-04-06T20:23:16.426Z,41.97
2019-04-06T20:25:44.176Z,41.67
2019-04-06T20:28:12.227Z,41.50
2019-04-06T20:30:40.725Z,39.87
2019-04-06T20:33:08.909Z,43.13
2019-04-06T20:35:36.557Z,46.10
2019-04-06T20:38:05.240Z,44.58
2019-04-06T20:40:33.494Z,43.20
2019-04-06T20:43:01.726Z,38.97
2019-04-06T20:45:30.025Z,42.03
2019-04-06T20:47:57.868Z,46.23
2019-04-06T20:50:25.937Z,59.37
2019-04-06T20:52:54.090Z,67.23
2019-04-06T20:55:21.860Z,69.77
2019-04-06T20:57:50.059Z,78.00
2019-04-06T21:00:18.812Z,87.77
2019-04-06T21:02:46.801Z,59.40
2019-04-06T21:05:14.901Z,54.67
2019-04-06T21:07:42.675Z,43.70
2019-04-06T21:10:11.001Z,48.93
2019-04-06T21:12:38.785Z,61.60
2019-04-06T21:15:17.630Z,50.20
2019-04-06T21:17:37.163Z,45.27
2019-04-06T21:20:06.490Z,52.13
2019-04-06T21:22:34.310Z,48.20
2019-04-06T21:25:02.307Z,47.93
2019-04-06T21:27:30.456Z,47.07
2019-04-06T21:29:58.531Z,45.47
2019-04-06T21:32:27.036Z,43.70
2019-04-06T21:34:54.895Z,41.97
2019-04-06T21:37:22.698Z,38.93
2019-04-06T21:39:50.389Z,42.60
2019-04-06T21:42:18.493Z,40.43
2019-04-06T21:44:46.744Z,37.20
2019-04-06T21:47:14.977Z,37.80
2019-04-06T21:49:42.713Z,38.70
2019-04-06T21:52:11.307Z,36.83
2019-04-06T21:54:39.011Z,36.83
2019-04-06T21:57:07.244Z,35.23
2019-04-06T21:59:35.710Z,36.10
2019-04-06T22:02:03.551Z,37.83
2019-04-06T22:04:31.639Z,36.13
2019-04-06T22:06:59.256Z,36.57
2019-04-06T22:09:27.394Z,34.93
2019-04-06T22:11:55.053Z,35.90
2019-04-06T22:14:22.833Z,38.93
2019-04-06T22:16:50.652Z,36.67
2019-04-06T22:19:18.380Z,38.33
2019-04-06T22:21:46.439Z,37.67
2019-04-06T22:24:14.904Z,38.57
2019-04-06T22:26:43.079Z,38.23
2019-04-06T22:29:10.810Z,38.00
2019-04-06T22:31:38.477Z,37.50
2019-04-06T22:34:06.149Z,37.53
2019-04-06T22:36:34.627Z,36.77
2019-04-06T22:39:03.187Z,37.57
2019-04-06T22:41:31.275Z,38.20
2019-04-06T22:43:59.047Z,39.37
2019-04-06T22:46:26.847Z,37.87
2019-04-06T22:48:55.179Z,36.97
2019-04-06T22:51:22.967Z,37.60
2019-04-06T22:53:50.924Z,36.37
2019-04-06T22:56:18.613Z,37.60
2019-04-06T22:58:46.767Z,36.90
2019-04-06T23:01:16.285Z,34.43
2019-04-06T23:03:45.580Z,37.43
2019-04-06T23:06:15.331Z,35.37
2019-04-06T23:08:43.015Z,36.43
2019-04-06T23:11:11.612Z,35.33
2019-04-06T23:13:39.809Z,40.50
2019-04-06T23:16:07.575Z,39.67
2019-04-06T23:18:35.313Z,39.30
2019-04-06T23:21:03.020Z,36.77
2019-04-06T23:23:31.375Z,37.93
2019-04-06T23:25:59.787Z,37.77
2019-04-06T23:28:28.445Z,37.83
2019-04-06T23:30:57.023Z,38.17
2019-04-06T23:33:25.444Z,38.03
2019-04-06T23:35:54.111Z,35.63
2019-04-06T23:38:21.877Z,36.07
2019-04-06T23:40:49.946Z,35.13
2019-04-06T23:43:18.642Z,35.73
2019-04-06T23:45:47.027Z,35.77
2019-04-06T23:48:15.190Z,33.60
2019-04-06T23:50:43.907Z,33.67
2019-04-06T23:53:12.464Z,32.67
2019-04-06T23:55:40.286Z,29.67
2019-04-06T23:58:08.407Z,31.07
